Welcome to Northern Hawkes Bay. New Zealand.
PWS Header
      nz Flag



Hit Counter


W3C Valid W3C Valid logo


    Wairoa

Select any of the Stations below to visit their websites.










Historic Data from Weather Underground
Select the location of interest below. Wairoa is the default. Please have patience, this Data is slow to load in.
Northern Hawkes Bay Historical Data
Daily Summary for January 9, 2017 Units:  Metric    English   Both
« Previous Day
Next Day »
Daily Weekly Monthly Yearly Custom
  High: Low: Average:
Temperature: 30.2 °C 17.5 °C 22.5 °C
Dew Point: 16.6 °C 11.9 °C 13.8 °C
Humidity: 83% 34% 60%
Wind Speed: 20.9km/h 0.0km/h 6.6km/h
Wind Gust: 29.4km/h - -
Wind- - WSW
Pressure: 1010.4 hPa 1007.0 hPa -
Precipitation: 0.0 mm    
Historical Graphs
 
 
Tabular Data for January 9, 2017
Time Temperature Dew Point Pressure Wind Wind Speed Wind Gust Humidity Rainfall Rate (Hourly) solar
00:02 23.5 °C 15.1 °C 1008.4 hPa SE 7.2 km/h 12.2 km/h 59% 0.0 mm 351 W/m2
00:18 23.5 °C 15.3 °C 1008.4 hPa SSE 5.0 km/h 12.2 km/h 60% 0.0 mm 325 W/m2
00:23 23.5 °C 14.8 °C 1008.4 hPa SSE 5.0 km/h 13.4 km/h 58% 0.0 mm 214 W/m2
00:29 22.3 °C 14.4 °C 1008.4 hPa SSE 5.0 km/h 13.4 km/h 61% 0.0 mm 102 W/m2
00:33 21.6 °C 14.8 °C 1008.4 hPa South 2.6 km/h 9.7 km/h 65% 0.0 mm 137 W/m2
00:38 22.0 °C 15.4 °C 1008.4 hPa South 5.0 km/h 9.7 km/h 66% 0.0 mm 141 W/m2
00:44 22.2 °C 16.1 °C 1008.7 hPa SSW 6.1 km/h 11.1 km/h 68% 0.0 mm 139 W/m2
00:48 21.4 °C 15.9 °C 1008.7 hPa SSW 6.1 km/h 12.2 km/h 71% 0.0 mm 76 W/m2
00:54 21.1 °C 15.9 °C 1008.4 hPa South 2.6 km/h 12.2 km/h 72% 0.0 mm 188 W/m2
00:58 21.9 °C 16.4 °C 1008.4 hPa SSW 2.6 km/h 8.7 km/h 71% 0.0 mm 230 W/m2
01:03 23.0 °C 16.3 °C 1008.4 hPa South 2.6 km/h 7.2 km/h 66% 0.0 mm 200 W/m2
01:08 23.8 °C 16.6 °C 1008.4 hPa Calm   7.2 km/h 64% 0.0 mm 187 W/m2
01:13 24.8 °C 15.7 °C 1008.4 hPa Calm   6.1 km/h 57% 0.0 mm 175 W/m2
01:18 25.1 °C 15.2 °C 1008.4 hPa Calm   3.5 km/h 54% 0.0 mm 166 W/m2
01:23 25.0 °C 15.3 °C 1008.4 hPa WSW 3.5 km/h 6.1 km/h 55% 0.0 mm 154 W/m2
01:28 24.4 °C 15.3 °C 1008.4 hPa Calm   6.1 km/h 57% 0.0 mm 52 W/m2
01:33 23.2 °C 15.0 °C 1008.4 hPa WSW 3.5 km/h 6.1 km/h 60% 0.0 mm 133 W/m2
01:38 23.0 °C 15.6 °C 1008.4 hPa WSW 1.1 km/h 6.1 km/h 63% 0.0 mm 112 W/m2
01:43 22.4 °C 15.0 °C 1008.7 hPa Calm   6.1 km/h 63% 0.0 mm 39 W/m2
01:48 21.7 °C 14.8 °C 1008.7 hPa Calm   5.0 km/h 65% 0.0 mm 67 W/m2
01:53 21.9 °C 15.1 °C 1008.7 hPa Calm   5.0 km/h 65% 0.0 mm 72 W/m2
01:58 21.9 °C 15.3 °C 1008.7 hPa Calm   3.5 km/h 66% 0.0 mm 34 W/m2
02:03 21.2 °C 14.8 °C 1008.7 hPa Calm   3.5 km/h 67% 0.0 mm 21 W/m2
02:09 20.8 °C 14.9 °C 1008.7 hPa Calm   3.5 km/h 69% 0.0 mm 18 W/m2
02:13 20.5 °C 14.8 °C 1008.7 hPa NW 1.1 km/h 2.6 km/h 70% 0.0 mm 15 W/m2
02:18 20.2 °C 15.0 °C 1008.7 hPa NW 1.1 km/h 2.6 km/h 72% 0.0 mm 14 W/m2
02:23 20.0 °C 15.0 °C 1008.7 hPa NW 1.1 km/h 3.5 km/h 73% 0.0 mm 10 W/m2
02:29 19.8 °C 15.3 °C 1009.0 hPa Calm   3.5 km/h 75% 0.0 mm 7 W/m2
02:33 19.6 °C 15.1 °C 1008.7 hPa NW 1.1 km/h 3.5 km/h 75% 0.0 mm 4 W/m2
02:38 19.5 °C 14.9 °C 1009.0 hPa Calm   3.5 km/h 75% 0.0 mm 1 W/m2
02:43 19.3 °C 14.8 °C 1008.7 hPa Calm   3.5 km/h 75% 0.0 mm 0 W/m2
02:48 19.1 °C 14.6 °C 1009.0 hPa Calm     75% 0.0 mm 0 W/m2
02:53 19.0 °C 14.5 °C 1009.0 hPa North 1.1 km/h 2.6 km/h 75% 0.0 mm 0 W/m2
02:58 19.1 °C 14.8 °C 1009.4 hPa NW 3.5 km/h 5.0 km/h 76% 0.0 mm 0 W/m2
03:03 18.9 °C 14.8 °C 1009.4 hPa NW 2.6 km/h 5.0 km/h 77% 0.0 mm 0 W/m2
03:08 18.8 °C 14.9 °C 1009.0 hPa NW 2.6 km/h 6.1 km/h 78% 0.0 mm 0 W/m2
03:13 18.7 °C 15.0 °C 1009.0 hPa NW 3.5 km/h 8.7 km/h 79% 0.0 mm 0 W/m2
03:18 18.6 °C 14.9 °C 1009.0 hPa NNW 1.1 km/h 8.7 km/h 79% 0.0 mm 0 W/m2
03:23 18.4 °C 14.9 °C 1009.0 hPa Calm   7.2 km/h 80% 0.0 mm 0 W/m2
03:28 18.4 °C 15.1 °C 1009.4 hPa NNE 2.6 km/h 5.0 km/h 81% 0.0 mm 0 W/m2
03:33 18.4 °C 15.1 °C 1009.0 hPa North 2.6 km/h 5.0 km/h 81% 0.0 mm 0 W/m2
03:38 18.5 °C 15.2 °C 1009.4 hPa NNW 2.6 km/h 6.1 km/h 81% 0.0 mm 0 W/m2
03:43 18.4 °C 15.1 °C 1009.4 hPa NNW 1.1 km/h 6.1 km/h 81% 0.0 mm 0 W/m2
03:48 18.2 °C 14.9 °C 1009.4 hPa WNW 3.5 km/h 7.2 km/h 81% 0.0 mm 0 W/m2
03:53 18.1 °C 15.0 °C 1009.4 hPa WNW 2.6 km/h 7.2 km/h 82% 0.0 mm 0 W/m2
03:58 18.0 °C 14.9 °C 1009.4 hPa Calm   6.1 km/h 82% 0.0 mm 0 W/m2
04:03 17.9 °C 14.8 °C 1009.7 hPa NW 1.1 km/h 5.0 km/h 82% 0.0 mm 0 W/m2
04:08 17.7 °C 14.6 °C 1009.4 hPa Calm   3.5 km/h 82% 0.0 mm 0 W/m2
04:13 17.6 °C 14.7 °C 1009.4 hPa North 3.5 km/h 5.0 km/h 83% 0.0 mm 0 W/m2
04:18 17.7 °C 14.8 °C 1009.4 hPa North 5.0 km/h 6.1 km/h 83% 0.0 mm 0 W/m2
04:23 17.8 °C 14.9 °C 1009.7 hPa North 2.6 km/h 6.1 km/h 83% 0.0 mm 0 W/m2
04:28 17.8 °C 14.9 °C 1009.7 hPa NNW 3.5 km/h 6.1 km/h 83% 0.0 mm 0 W/m2
04:33 17.8 °C 14.9 °C 1009.7 hPa NW 6.1 km/h 8.7 km/h 83% 0.0 mm 0 W/m2
04:38 17.8 °C 14.9 °C 1009.4 hPa NW 5.0 km/h 8.7 km/h 83% 0.0 mm 0 W/m2
04:43 17.9 °C 15.0 °C 1009.4 hPa NW 5.0 km/h 8.7 km/h 83% 0.0 mm 0 W/m2
04:48 18.1 °C 15.0 °C 1009.4 hPa NNW 6.1 km/h 8.7 km/h 82% 0.0 mm 0 W/m2
04:54 18.2 °C 14.9 °C 1009.4 hPa NNW 5.0 km/h 8.7 km/h 81% 0.0 mm 0 W/m2
05:00 18.2 °C 14.7 °C 1009.7 hPa NW 3.5 km/h 8.7 km/h 80% 0.0 mm 0 W/m2
05:05 18.3 °C 14.8 °C 1009.4 hPa NW 3.5 km/h 6.1 km/h 80% 0.0 mm 0 W/m2
05:10 18.2 °C 14.7 °C 1009.4 hPa NW 1.1 km/h 6.1 km/h 80% 0.0 mm 0 W/m2
05:12 18.1 °C 14.6 °C 1009.7 hPa NW 3.5 km/h 5.0 km/h 80% 0.0 mm 0 W/m2
05:17 18.1 °C 14.8 °C 1009.7 hPa NNW 2.6 km/h 6.1 km/h 81% 0.0 mm 0 W/m2
05:22 18.1 °C 14.6 °C 1009.7 hPa NW 2.6 km/h 6.1 km/h 80% 0.0 mm 0 W/m2
05:27 18.1 °C 14.6 °C 1009.7 hPa Calm   5.0 km/h 80% 0.0 mm 0 W/m2
05:32 18.0 °C 14.7 °C 1009.7 hPa Calm   2.6 km/h 81% 0.0 mm 0 W/m2
05:37 17.9 °C 14.6 °C 1009.4 hPa Calm   1.1 km/h 81% 0.0 mm 0 W/m2
05:42 17.8 °C 14.5 °C 1009.4 hPa Calm   1.1 km/h 81% 0.0 mm 0 W/m2
05:47 17.8 °C 14.5 °C 1009.4 hPa East 2.6 km/h 5.0 km/h 81% 0.0 mm 0 W/m2
05:52 18.0 °C 14.1 °C 1009.4 hPa ENE 2.6 km/h 5.0 km/h 78% 0.0 mm 0 W/m2
05:57 18.1 °C 13.6 °C 1009.4 hPa NNE 5.0 km/h 8.7 km/h 75% 0.0 mm 0 W/m2
06:02 18.5 °C 12.9 °C 1009.4 hPa NNE 6.1 km/h 9.7 km/h 70% 0.0 mm 0 W/m2
06:07 18.7 °C 12.9 °C 1009.4 hPa North 5.0 km/h 9.7 km/h 69% 0.0 mm 0 W/m2
06:12 18.8 °C 12.8 °C 1009.0 hPa North 6.1 km/h 11.1 km/h 68% 0.0 mm 0 W/m2
06:17 18.9 °C 12.7 °C 1009.0 hPa North 6.1 km/h 12.2 km/h 67% 0.0 mm 0 W/m2
06:22 19.1 °C 12.4 °C 1009.0 hPa NNW 7.2 km/h 14.8 km/h 65% 0.0 mm 0 W/m2
06:27 19.2 °C 12.2 °C 1008.7 hPa NNW 11.1 km/h 15.8 km/h 64% 0.0 mm 0 W/m2
06:32 19.4 °C 12.4 °C 1008.7 hPa NW 6.1 km/h 18.3 km/h 64% 0.0 mm 0 W/m2
06:37 19.5 °C 12.5 °C 1008.4 hPa NW 5.0 km/h 18.3 km/h 64% 0.0 mm 0 W/m2
06:42 19.3 °C 12.3 °C 1008.4 hPa NNW 7.2 km/h 15.8 km/h 64% 0.0 mm 0 W/m2
06:47 19.4 °C 12.4 °C 1008.0 hPa NNW 6.1 km/h 13.4 km/h 64% 0.0 mm 0 W/m2
06:52 19.0 °C 12.3 °C 1008.0 hPa North 6.1 km/h 13.4 km/h 65% 0.0 mm 0 W/m2
06:57 18.5 °C 12.3 °C 1008.0 hPa North 5.0 km/h 11.1 km/h 67% 0.0 mm 0 W/m2
07:02 18.3 °C 12.3 °C 1008.7 hPa NNE 2.6 km/h 11.1 km/h 68% 0.0 mm 0 W/m2
07:07 18.2 °C 12.2 °C 1009.0 hPa North 5.0 km/h 9.7 km/h 68% 0.0 mm 0 W/m2
07:12 18.3 °C 12.3 °C 1008.7 hPa NNW 7.2 km/h 11.1 km/h 68% 0.0 mm 0 W/m2
07:17 18.5 °C 12.5 °C 1008.7 hPa NNW 8.7 km/h 15.8 km/h 68% 0.0 mm 0 W/m2
07:22 18.6 °C 12.4 °C 1008.7 hPa NNW 7.2 km/h 15.8 km/h 67% 0.0 mm 0 W/m2
07:27 18.9 °C 12.4 °C 1008.4 hPa NNW 13.4 km/h 17.2 km/h 66% 0.0 mm 0 W/m2
07:32 19.0 °C 12.3 °C 1008.4 hPa NNW 9.7 km/h 19.5 km/h 65% 0.0 mm 0 W/m2
07:37 19.1 °C 12.2 °C 1008.7 hPa NNW 9.7 km/h 21.9 km/h 64% 0.0 mm 0 W/m2
07:46 19.2 °C 12.2 °C 1008.7 hPa North 8.7 km/h 17.2 km/h 64% 0.0 mm 0 W/m2
07:51 19.1 °C 12.2 °C 1008.7 hPa North 5.0 km/h 17.2 km/h 64% 0.0 mm 0 W/m2
07:56 19.0 °C 12.1 °C 1008.7 hPa North 9.7 km/h 17.2 km/h 64% 0.0 mm 0 W/m2
08:01 19.0 °C 12.3 °C 1008.7 hPa North 5.0 km/h 17.2 km/h 65% 0.0 mm 0 W/m2
08:06 18.9 °C 12.4 °C 1008.7 hPa NNW 7.2 km/h 17.2 km/h 66% 0.0 mm 0 W/m2
08:26 18.7 °C 12.2 °C 1008.7 hPa North 11.1 km/h 14.8 km/h 66% 0.0 mm 0 W/m2
08:31 18.8 °C 12.3 °C 1008.7 hPa NNW 11.1 km/h 19.5 km/h 66% 0.0 mm 0 W/m2
08:36 18.6 °C 12.1 °C 1008.7 hPa North 3.5 km/h 19.5 km/h 66% 0.0 mm 0 W/m2
08:41 18.4 °C 12.2 °C 1008.4 hPa North 5.0 km/h 15.8 km/h 67% 0.0 mm 0 W/m2
08:46 18.2 °C 12.0 °C 1008.4 hPa North 6.1 km/h 14.8 km/h 67% 0.0 mm 0 W/m2
08:51 18.1 °C 11.9 °C 1008.0 hPa North 3.5 km/h 14.8 km/h 67% 0.0 mm 0 W/m2
08:56 18.0 °C 12.0 °C 1008.4 hPa North 2.6 km/h 9.7 km/h 68% 0.0 mm 0 W/m2
09:01 17.9 °C 12.2 °C 1008.0 hPa North 5.0 km/h 9.7 km/h 69% 0.0 mm 0 W/m2
09:06 17.9 °C 12.2 °C 1008.0 hPa NNW 5.0 km/h 9.7 km/h 69% 0.0 mm 0 W/m2
09:11 17.8 °C 12.3 °C 1008.0 hPa NNW 3.5 km/h 11.1 km/h 70% 0.0 mm 0 W/m2
09:16 17.7 °C 12.2 °C 1008.0 hPa North 3.5 km/h 11.1 km/h 70% 0.0 mm 0 W/m2
09:21 17.8 °C 12.3 °C 1007.7 hPa North 3.5 km/h 11.1 km/h 70% 0.0 mm 0 W/m2
09:26 17.9 °C 12.3 °C 1008.0 hPa North 3.5 km/h 9.7 km/h 70% 0.0 mm 0 W/m2
09:31 18.0 °C 12.0 °C 1007.7 hPa NNW 1.1 km/h 8.7 km/h 68% 0.0 mm 0 W/m2
09:36 18.1 °C 12.3 °C 1007.7 hPa North 6.1 km/h 11.1 km/h 69% 0.0 mm 0 W/m2
09:41 18.3 °C 12.3 °C 1007.3 hPa North 6.1 km/h 11.1 km/h 68% 0.0 mm 0 W/m2
09:46 18.2 °C 12.2 °C 1007.3 hPa NNW 8.7 km/h 14.8 km/h 68% 0.0 mm 0 W/m2
09:51 18.4 °C 12.4 °C 1007.7 hPa North 7.2 km/h 15.8 km/h 68% 0.0 mm 0 W/m2
09:56 18.5 °C 12.5 °C 1007.3 hPa North 8.7 km/h 19.5 km/h 68% 0.0 mm 0 W/m2
10:01 18.6 °C 12.4 °C 1007.3 hPa North 8.7 km/h 19.5 km/h 67% 0.0 mm 0 W/m2
10:06 18.6 °C 12.4 °C 1007.3 hPa North 3.5 km/h 19.5 km/h 67% 0.0 mm 0 W/m2
10:11 18.7 °C 12.4 °C 1007.3 hPa North 7.2 km/h 15.8 km/h 67% 0.0 mm 0 W/m2
10:16 18.7 °C 12.4 °C 1007.3 hPa NNW 8.7 km/h 15.8 km/h 67% 0.0 mm 0 W/m2
10:21 18.7 °C 12.4 °C 1007.3 hPa NNW 9.7 km/h 17.2 km/h 67% 0.0 mm 0 W/m2
10:26 18.7 °C 12.7 °C 1007.0 hPa North 9.7 km/h 17.2 km/h 68% 0.0 mm 0 W/m2
10:31 18.5 °C 12.5 °C 1007.0 hPa North 9.7 km/h 17.2 km/h 68% 0.0 mm 0 W/m2
10:36 18.4 °C 12.4 °C 1007.0 hPa North 8.7 km/h 17.2 km/h 68% 0.0 mm 0 W/m2
10:41 18.3 °C 12.5 °C 1007.3 hPa NNW 12.2 km/h 14.8 km/h 69% 0.0 mm 0 W/m2
10:46 18.3 °C 12.5 °C 1007.0 hPa NNW 6.1 km/h 14.8 km/h 69% 0.0 mm 0 W/m2
10:51 18.3 °C 12.5 °C 1007.0 hPa North 7.2 km/h 14.8 km/h 69% 0.0 mm 0 W/m2
10:56 18.2 °C 12.4 °C 1007.0 hPa North 6.1 km/h 18.3 km/h 69% 0.0 mm 0 W/m2
11:01 18.3 °C 12.5 °C 1007.0 hPa North 7.2 km/h 18.3 km/h 69% 0.0 mm 0 W/m2
11:06 18.3 °C 12.5 °C 1007.0 hPa North 8.7 km/h 17.2 km/h 69% 0.0 mm 0 W/m2
11:11 18.3 °C 12.5 °C 1007.3 hPa NNW 7.2 km/h 17.2 km/h 69% 0.0 mm 0 W/m2
11:16 18.2 °C 12.7 °C 1007.0 hPa NNW 7.2 km/h 14.8 km/h 70% 0.0 mm 0 W/m2
11:21 18.1 °C 12.6 °C 1007.0 hPa NNW 7.2 km/h 14.8 km/h 70% 0.0 mm 0 W/m2
11:26 18.2 °C 12.7 °C 1007.0 hPa NW 9.7 km/h 15.8 km/h 70% 0.0 mm 0 W/m2
11:31 18.2 °C 12.7 °C 1007.0 hPa NNW 8.7 km/h 15.8 km/h 70% 0.0 mm 0 W/m2
11:36 18.2 °C 12.7 °C 1007.3 hPa NNW 8.7 km/h 15.8 km/h 70% 0.0 mm 0 W/m2
11:41 17.9 °C 12.8 °C 1007.3 hPa NNW 7.2 km/h 14.8 km/h 72% 0.0 mm 0 W/m2
11:46 17.7 °C 12.6 °C 1007.3 hPa NNW 8.7 km/h 14.8 km/h 72% 0.0 mm 0 W/m2
11:51 17.6 °C 12.7 °C 1007.3 hPa NNW 2.6 km/h 14.8 km/h 73% 0.0 mm 1 W/m2
11:56 17.6 °C 12.7 °C 1007.7 hPa NW 6.1 km/h 11.1 km/h 73% 0.0 mm 3 W/m2
12:01 17.5 °C 12.6 °C 1007.7 hPa NNW 6.1 km/h 11.1 km/h 73% 0.0 mm 6 W/m2
12:06 17.6 °C 12.7 °C 1007.7 hPa North 2.6 km/h 11.1 km/h 73% 0.0 mm 10 W/m2
12:11 17.8 °C 12.9 °C 1007.7 hPa North 7.2 km/h 12.2 km/h 73% 0.0 mm 13 W/m2
12:16 17.9 °C 13.0 °C 1007.7 hPa NNE 7.2 km/h 12.2 km/h 73% 0.0 mm 16 W/m2
12:21 18.2 °C 13.1 °C 1007.7 hPa NNE 7.2 km/h 13.4 km/h 72% 0.0 mm 20 W/m2
12:26 18.5 °C 13.4 °C 1007.7 hPa NNE 6.1 km/h 14.8 km/h 72% 0.0 mm 25 W/m2
12:31 18.8 °C 13.4 °C 1007.7 hPa North 7.2 km/h 14.8 km/h 71% 0.0 mm 27 W/m2
12:36 19.1 °C 13.3 °C 1008.0 hPa NNW 8.7 km/h 14.8 km/h 69% 0.0 mm 46 W/m2
12:41 19.7 °C 13.7 °C 1008.0 hPa North 8.7 km/h 13.4 km/h 68% 0.0 mm 60 W/m2
12:46 20.2 °C 13.7 °C 1008.0 hPa NNW 9.7 km/h 15.8 km/h 66% 0.0 mm 69 W/m2
12:51 20.6 °C 13.8 °C 1008.0 hPa NNW 9.7 km/h 17.2 km/h 65% 0.0 mm 82 W/m2
12:56 20.7 °C 13.7 °C 1008.0 hPa North 11.1 km/h 20.9 km/h 64% 0.0 mm 92 W/m2
13:01 20.9 °C 14.1 °C 1008.4 hPa NNW 11.1 km/h 20.9 km/h 65% 0.0 mm 106 W/m2
13:06 21.2 °C 13.9 °C 1008.4 hPa NNW 9.7 km/h 19.5 km/h 63% 0.0 mm 118 W/m2
13:11 21.7 °C 14.1 °C 1008.4 hPa NNW 11.1 km/h 19.5 km/h 62% 0.0 mm 129 W/m2
13:16 22.0 °C 14.2 °C 1008.4 hPa NW 9.7 km/h 18.3 km/h 61% 0.0 mm 143 W/m2
13:21 22.3 °C 14.2 °C 1008.4 hPa NW 13.4 km/h 18.3 km/h 60% 0.0 mm 160 W/m2
13:26 22.4 °C 14.3 °C 1008.4 hPa NW 11.1 km/h 20.9 km/h 60% 0.0 mm 171 W/m2
13:31 22.5 °C 14.4 °C 1008.4 hPa NNW 12.2 km/h 20.9 km/h 60% 0.0 mm 183 W/m2
13:36 22.6 °C 14.2 °C 1008.4 hPa NW 11.1 km/h 23.3 km/h 59% 0.0 mm 195 W/m2
13:41 22.9 °C 14.5 °C 1008.4 hPa NW 13.4 km/h 23.3 km/h 59% 0.0 mm 207 W/m2
13:46 23.0 °C 14.1 °C 1008.7 hPa NW 8.7 km/h 21.9 km/h 57% 0.0 mm 223 W/m2
13:51 23.2 °C 14.2 °C 1009.0 hPa NW 7.2 km/h 21.9 km/h 57% 0.0 mm 237 W/m2
13:56 23.4 °C 14.4 °C 1008.7 hPa NW 12.2 km/h 20.9 km/h 57% 0.0 mm 254 W/m2
14:01 23.4 °C 14.4 °C 1009.0 hPa NW 8.7 km/h 20.9 km/h 57% 0.0 mm 268 W/m2
14:06 23.6 °C 14.3 °C 1008.7 hPa NW 9.7 km/h 20.9 km/h 56% 0.0 mm 280 W/m2
14:11 23.9 °C 14.6 °C 1008.7 hPa NW 11.1 km/h 18.3 km/h 56% 0.0 mm 297 W/m2
14:16 24.2 °C 14.6 °C 1008.7 hPa NW 13.4 km/h 18.3 km/h 55% 0.0 mm 308 W/m2
14:21 24.2 °C 14.3 °C 1009.0 hPa NW 12.2 km/h 23.3 km/h 54% 0.0 mm 321 W/m2
14:26 24.4 °C 14.5 °C 1009.0 hPa NNW 9.7 km/h 23.3 km/h 54% 0.0 mm 341 W/m2
14:31 24.8 °C 14.9 °C 1009.0 hPa NNW 8.7 km/h 20.9 km/h 54% 0.0 mm 357 W/m2
14:36 24.8 °C 14.6 °C 1009.0 hPa NNW 12.2 km/h 18.3 km/h 53% 0.0 mm 377 W/m2
14:41 24.7 °C 14.8 °C 1009.0 hPa North 11.1 km/h 18.3 km/h 54% 0.0 mm 393 W/m2
14:46 25.2 °C 14.4 °C 1009.0 hPa NNW 7.2 km/h 17.2 km/h 51% 0.0 mm 413 W/m2
14:51 25.4 °C 14.2 °C 1009.0 hPa NW 7.2 km/h 17.2 km/h 50% 0.0 mm 445 W/m2
14:56 25.9 °C 14.4 °C 1009.0 hPa North 7.2 km/h 15.8 km/h 49% 0.0 mm 496 W/m2
15:01 25.9 °C 14.1 °C 1009.0 hPa North 14.8 km/h 17.2 km/h 48% 0.0 mm 495 W/m2
15:06 25.7 °C 13.9 °C 1009.0 hPa NNW 11.1 km/h 19.5 km/h 48% 0.0 mm 493 W/m2
15:11 25.9 °C 14.1 °C 1008.7 hPa NNW 19.5 km/h 24.5 km/h 48% 0.0 mm 521 W/m2
15:16 25.7 °C 13.6 °C 1008.7 hPa NNW 14.8 km/h 27.0 km/h 47% 0.0 mm 538 W/m2
15:21 25.7 °C 14.2 °C 1009.0 hPa NNW 7.2 km/h 27.0 km/h 49% 0.0 mm 552 W/m2
15:26 25.9 °C 13.7 °C 1009.4 hPa NNW 12.2 km/h 19.5 km/h 47% 0.0 mm 547 W/m2
15:31 26.1 °C 13.6 °C 1009.0 hPa NNW 11.1 km/h 19.5 km/h 46% 0.0 mm 539 W/m2
15:36 26.1 °C 13.6 °C 1009.0 hPa NNW 9.7 km/h 19.5 km/h 46% 0.0 mm 581 W/m2
15:41 26.5 °C 14.3 °C 1009.0 hPa NNW 6.1 km/h 17.2 km/h 47% 0.0 mm 636 W/m2
15:46 27.1 °C 13.8 °C 1009.0 hPa NNW 11.1 km/h 17.2 km/h 44% 0.0 mm 657 W/m2
15:51 26.9 °C 14.0 °C 1009.0 hPa NW 5.0 km/h 15.8 km/h 45% 0.0 mm 682 W/m2
16:22 28.2 °C 13.7 °C 1009.0 hPa NW 11.1 km/h 19.5 km/h 41% 0.0 mm 834 W/m2
16:27 27.6 °C 13.2 °C 1009.0 hPa NNW 3.5 km/h 19.5 km/h 41% 0.0 mm 837 W/m2
16:32 28.0 °C 13.9 °C 1009.0 hPa WNW 7.2 km/h 19.5 km/h 42% 0.0 mm 773 W/m2
16:37 28.0 °C 13.9 °C 1009.0 hPa West 9.7 km/h 18.3 km/h 42% 0.0 mm 800 W/m2
16:42 27.7 °C 13.7 °C 1008.7 hPa WNW 3.5 km/h 18.3 km/h 42% 0.0 mm 891 W/m2
16:47 28.2 °C 13.7 °C 1009.0 hPa NW 5.0 km/h 18.3 km/h 41% 0.0 mm 896 W/m2
16:52 28.6 °C 14.1 °C 1009.0 hPa West 9.7 km/h 14.8 km/h 41% 0.0 mm 237 W/m2
16:57 28.2 °C 13.7 °C 1009.0 hPa West 2.6 km/h 13.4 km/h 41% 0.0 mm 220 W/m2
17:02 28.0 °C 14.3 °C 1009.0 hPa West 6.1 km/h 12.2 km/h 43% 0.0 mm 1004 W/m2
17:07 28.5 °C 14.4 °C 1009.0 hPa West 7.2 km/h 18.3 km/h 42% 0.0 mm 1031 W/m2
17:12 28.3 °C 15.3 °C 1009.4 hPa SW 8.7 km/h 18.3 km/h 45% 0.0 mm 1030 W/m2
17:17 27.8 °C 14.4 °C 1009.4 hPa SSW 12.2 km/h 15.8 km/h 44% 0.0 mm 989 W/m2
17:22 27.5 °C 14.2 °C 1009.4 hPa SSW 12.2 km/h 19.5 km/h 44% 0.0 mm 656 W/m2
17:28 27.5 °C 14.2 °C 1009.4 hPa SSW 15.8 km/h 20.9 km/h 44% 0.0 mm 966 W/m2
17:35 27.8 °C 14.4 °C 1009.4 hPa SSW 9.7 km/h 20.9 km/h 44% 0.0 mm 1055 W/m2
17:40 27.7 °C 14.7 °C 1009.4 hPa SSW 13.4 km/h 20.9 km/h 45% 0.0 mm 987 W/m2
17:45 27.5 °C 14.6 °C 1009.7 hPa SSW 11.1 km/h 20.9 km/h 45% 0.0 mm 979 W/m2
17:51 27.2 °C 14.9 °C 1009.7 hPa SSW 13.4 km/h 20.9 km/h 47% 0.0 mm 1018 W/m2
17:56 26.6 °C 15.3 °C 1009.7 hPa SSW 11.1 km/h 20.9 km/h 50% 0.0 mm 1026 W/m2
18:01 26.8 °C 14.6 °C 1009.7 hPa South 15.8 km/h 23.3 km/h 47% 0.0 mm 944 W/m2
18:06 26.6 °C 14.7 °C 1009.7 hPa SSW 14.8 km/h 25.6 km/h 48% 0.0 mm 985 W/m2
18:11 26.7 °C 14.5 °C 1009.7 hPa SSW 20.9 km/h 28.0 km/h 47% 0.0 mm 973 W/m2
18:16 26.7 °C 13.8 °C 1009.7 hPa SW 18.3 km/h 29.4 km/h 45% 0.0 mm 971 W/m2
18:21 26.5 °C 13.3 °C 1009.4 hPa SW 20.9 km/h 29.4 km/h 44% 0.0 mm 973 W/m2
18:39 26.4 °C 14.2 °C 1009.7 hPa SSW 12.2 km/h 25.6 km/h 47% 0.0 mm 962 W/m2
18:44 26.3 °C 13.8 °C 1009.7 hPa SSW 12.2 km/h 20.9 km/h 46% 0.0 mm 924 W/m2
18:49 26.2 °C 14.7 °C 1010.0 hPa South 9.7 km/h 20.9 km/h 49% 0.0 mm 961 W/m2
18:54 25.7 °C 14.2 °C 1010.0 hPa South 12.2 km/h 17.2 km/h 49% 0.0 mm 966 W/m2
18:59 25.4 °C 13.9 °C 1010.0 hPa South 11.1 km/h 17.2 km/h 49% 0.0 mm 974 W/m2
19:05 25.9 °C 14.7 °C 1010.0 hPa South 6.1 km/h 18.3 km/h 50% 0.0 mm 965 W/m2
19:09 26.4 °C 14.2 °C 1010.0 hPa South 7.2 km/h 18.3 km/h 47% 0.0 mm 936 W/m2
19:15 26.0 °C 14.5 °C 1010.0 hPa SSW 5.0 km/h 14.8 km/h 49% 0.0 mm 593 W/m2
19:19 26.0 °C 15.1 °C 1009.7 hPa South 8.7 km/h 14.8 km/h 51% 0.0 mm 857 W/m2
19:24 25.9 °C 15.3 °C 1009.7 hPa South 6.1 km/h 14.8 km/h 52% 0.0 mm 911 W/m2
19:29 26.6 °C 15.3 °C 1009.7 hPa South 6.1 km/h 13.4 km/h 50% 0.0 mm 779 W/m2
19:34 26.7 °C 14.2 °C 1009.7 hPa SSE 11.1 km/h 14.8 km/h 46% 0.0 mm 1019 W/m2
19:40 26.5 °C 14.6 °C 1009.7 hPa South 8.7 km/h 14.8 km/h 48% 0.0 mm 849 W/m2
19:44 26.6 °C 13.7 °C 1009.7 hPa South 3.5 km/h 14.8 km/h 45% 0.0 mm 918 W/m2
19:49 27.3 °C 14.0 °C 1009.7 hPa South 5.0 km/h 13.4 km/h 44% 0.0 mm 869 W/m2
19:55 27.5 °C 13.8 °C 1010.0 hPa SSE 9.7 km/h 14.8 km/h 43% 0.0 mm 840 W/m2
20:00 27.0 °C 13.4 °C 1010.0 hPa SSE 6.1 km/h 14.8 km/h 43% 0.0 mm 698 W/m2
20:05 27.2 °C 13.2 °C 1010.0 hPa SSE 3.5 km/h 14.8 km/h 42% 0.0 mm 868 W/m2
20:10 27.5 °C 13.4 °C 1009.7 hPa SSE 7.2 km/h 14.8 km/h 42% 0.0 mm 885 W/m2
20:15 28.1 °C 14.4 °C 1009.7 hPa SE 5.0 km/h 14.8 km/h 43% 0.0 mm 509 W/m2
20:21 28.1 °C 13.3 °C 1009.7 hPa SE 6.1 km/h 12.2 km/h 40% 0.0 mm 539 W/m2
20:26 27.7 °C 13.3 °C 1009.7 hPa South 2.6 km/h 15.8 km/h 41% 0.0 mm 831 W/m2
20:31 28.3 °C 13.4 °C 1009.7 hPa SSE 7.2 km/h 15.8 km/h 40% 0.0 mm 931 W/m2
20:36 28.3 °C 14.2 °C 1010.0 hPa SSE 3.5 km/h 13.4 km/h 42% 0.0 mm 648 W/m2
20:41 28.1 °C 13.6 °C 1009.7 hPa SE 6.1 km/h 13.4 km/h 41% 0.0 mm 505 W/m2
20:46 27.9 °C 13.4 °C 1010.0 hPa SSE 7.2 km/h 12.2 km/h 41% 0.0 mm 577 W/m2
20:51 28.0 °C 13.6 °C 1010.0 hPa SSE 3.5 km/h 11.1 km/h 41% 0.0 mm 541 W/m2
20:56 27.9 °C 13.4 °C 1009.7 hPa SE 5.0 km/h 12.2 km/h 41% 0.0 mm 524 W/m2
21:01 27.3 °C 12.6 °C 1010.0 hPa SSE 3.5 km/h 12.2 km/h 40% 0.0 mm 807 W/m2
21:06 28.0 °C 13.2 °C 1009.7 hPa SE 5.0 km/h 12.2 km/h 40% 0.0 mm 571 W/m2
21:11 28.6 °C 13.3 °C 1009.7 hPa SE 5.0 km/h 11.1 km/h 39% 0.0 mm 839 W/m2
21:16 28.7 °C 13.4 °C 1010.0 hPa SE 6.1 km/h 11.1 km/h 39% 0.0 mm 650 W/m2
21:21 28.6 °C 13.3 °C 1010.0 hPa SE 6.1 km/h 11.1 km/h 39% 0.0 mm 709 W/m2
21:26 28.6 °C 13.3 °C 1010.0 hPa SE 6.1 km/h 11.1 km/h 39% 0.0 mm 668 W/m2
21:31 29.2 °C 13.8 °C 1010.0 hPa SSE 3.5 km/h 11.1 km/h 39% 0.0 mm 755 W/m2
21:36 29.4 °C 13.6 °C 1010.0 hPa SE 2.6 km/h 9.7 km/h 38% 0.0 mm 705 W/m2
21:41 29.9 °C 13.2 °C 1009.7 hPa ESE 5.0 km/h 9.7 km/h 36% 0.0 mm 717 W/m2
21:46 29.8 °C 13.6 °C 1009.7 hPa SE 6.1 km/h 11.1 km/h 37% 0.0 mm 717 W/m2
21:51 29.9 °C 13.2 °C 1010.0 hPa SE 7.2 km/h 12.2 km/h 36% 0.0 mm 721 W/m2
21:56 29.6 °C 13.0 °C 1010.0 hPa ESE 3.5 km/h 14.8 km/h 36% 0.0 mm 719 W/m2
22:01 29.9 °C 13.2 °C 1009.7 hPa SE 5.0 km/h 14.8 km/h 36% 0.0 mm 657 W/m2
22:06 30.0 °C 12.4 °C 1009.7 hPa SSE 5.0 km/h 12.2 km/h 34% 0.0 mm 689 W/m2
22:11 30.2 °C 12.6 °C 1009.7 hPa SE 7.2 km/h 12.2 km/h 34% 0.0 mm 697 W/m2
22:16 29.9 °C 12.8 °C 1010.0 hPa ESE 5.0 km/h 13.4 km/h 35% 0.0 mm 676 W/m2
22:21 30.1 °C 12.6 °C 1010.0 hPa ESE 6.1 km/h 13.4 km/h 34% 0.0 mm 667 W/m2
22:27 30.2 °C 13.1 °C 1010.0 hPa SE 7.2 km/h 14.8 km/h 35% 0.0 mm 650 W/m2
22:32 29.8 °C 13.6 °C 1010.0 hPa SE 7.2 km/h 15.8 km/h 37% 0.0 mm 637 W/m2
22:39 28.9 °C 13.9 °C 1010.0 hPa SE 9.7 km/h 21.9 km/h 40% 0.0 mm 281 W/m2
22:44 27.6 °C 13.6 °C 1010.0 hPa ESE 8.7 km/h 21.9 km/h 42% 0.0 mm 174 W/m2
22:49 26.8 °C 13.9 °C 1010.0 hPa ESE 7.2 km/h 19.5 km/h 45% 0.0 mm 340 W/m2
22:54 27.2 °C 13.9 °C 1010.0 hPa ESE 8.7 km/h 18.3 km/h 44% 0.0 mm 559 W/m2
22:59 27.3 °C 14.0 °C 1010.4 hPa ESE 6.1 km/h 18.3 km/h 44% 0.0 mm 547 W/m2
23:04 27.1 °C 13.8 °C 1010.0 hPa ESE 9.7 km/h 23.3 km/h 44% 0.0 mm 503 W/m2
23:09 26.8 °C 13.9 °C 1010.0 hPa ESE 8.7 km/h 23.3 km/h 45% 0.0 mm 366 W/m2
23:14 27.0 °C 13.7 °C 1010.4 hPa ESE 9.7 km/h 21.9 km/h 44% 0.0 mm 509 W/m2
23:19 27.0 °C 13.7 °C 1010.0 hPa ESE 8.7 km/h 19.5 km/h 44% 0.0 mm 386 W/m2
23:24 26.3 °C 13.8 °C 1010.0 hPa ESE 9.7 km/h 19.5 km/h 46% 0.0 mm 390 W/m2
23:29 26.4 °C 13.9 °C 1010.0 hPa ESE 11.1 km/h 19.5 km/h 46% 0.0 mm 231 W/m2
23:34 25.8 °C 14.0 °C 1010.0 hPa East 8.7 km/h 23.3 km/h 48% 0.0 mm 227 W/m2
23:39 25.5 °C 14.0 °C 1010.0 hPa East 12.2 km/h 23.3 km/h 49% 0.0 mm 219 W/m2
23:44 25.3 °C 14.2 °C 1010.0 hPa ESE 6.1 km/h 18.3 km/h 50% 0.0 mm 337 W/m2
23:49 25.4 °C 13.6 °C 1010.0 hPa ESE 5.0 km/h 17.2 km/h 48% 0.0 mm 427 W/m2
23:54 26.0 °C 14.2 °C 1010.0 hPa ESE 11.1 km/h 17.2 km/h 48% 0.0 mm 471 W/m2
Northern Hawkes Bay. New Zealand Historic Data
Compliments of Weather Underground - 2 mb